createdAt,value
2022-12-13T00:01:47.398Z,-2.00
2022-12-13T00:04:16.295Z,-1.90
2022-12-13T00:06:44.502Z,-2.00
2022-12-13T00:09:15.621Z,-2.00
2022-12-13T00:11:43.962Z,-2.00
2022-12-13T00:14:15.162Z,-2.00
2022-12-13T00:16:47.654Z,-2.00
2022-12-13T00:19:17.281Z,-2.00
2022-12-13T00:21:46.216Z,-2.00
2022-12-13T00:24:15.156Z,-2.10
2022-12-13T00:26:43.413Z,-2.10
2022-12-13T00:29:14.144Z,-2.10
2022-12-13T00:31:58.675Z,-2.10
2022-12-13T00:34:27.771Z,-2.10
2022-12-13T00:36:56.645Z,-2.10
2022-12-13T00:39:24.783Z,-2.10
2022-12-13T00:41:53.391Z,-2.10
2022-12-13T00:44:23.049Z,-2.10
2022-12-13T00:46:52.461Z,-2.10
2022-12-13T00:49:20.986Z,-2.20
2022-12-13T00:51:49.910Z,-2.20
2022-12-13T00:54:18.690Z,-2.10
2022-12-13T00:56:47.397Z,-2.10
2022-12-13T00:59:16.549Z,-2.10
2022-12-13T01:01:46.410Z,-2.10
2022-12-13T01:04:15.611Z,-2.10
2022-12-13T01:06:45.625Z,-2.10
2022-12-13T01:09:18.774Z,-2.20
2022-12-13T01:11:47.948Z,-2.10
2022-12-13T01:14:16.818Z,-2.20
2022-12-13T01:16:46.967Z,-2.20
2022-12-13T01:19:15.181Z,-2.20
2022-12-13T01:21:44.114Z,-2.20
2022-12-13T01:24:12.494Z,-2.20
2022-12-13T01:26:41.079Z,-2.30
2022-12-13T01:29:11.384Z,-2.30
2022-12-13T01:31:42.133Z,-2.30
2022-12-13T01:34:14.192Z,-2.30
2022-12-13T01:36:45.284Z,-2.30
2022-12-13T01:39:16.898Z,-2.30
2022-12-13T01:41:46.641Z,-2.30
2022-12-13T01:44:52.524Z,-2.40
2022-12-13T01:47:24.992Z,-2.40
2022-12-13T01:49:58.275Z,-2.40
2022-12-13T01:52:31.793Z,-2.40
2022-12-13T01:55:03.152Z,-2.50
2022-12-13T01:57:33.319Z,-2.50
2022-12-13T02:00:01.727Z,-2.60
2022-12-13T02:02:30.384Z,-2.60
2022-12-13T02:05:05.290Z,-2.70
2022-12-13T02:07:36.517Z,-2.70
2022-12-13T02:10:07.283Z,-2.70
2022-12-13T02:12:38.739Z,-2.80
2022-12-13T02:15:12.244Z,-2.80
2022-12-13T02:18:08.269Z,-2.80
2022-12-13T02:21:08.381Z,-2.80
2022-12-13T02:24:10.107Z,-2.90
2022-12-13T02:27:02.363Z,-2.90
2022-12-13T02:30:17.646Z,-2.90
2022-12-13T02:33:08.463Z,-2.90
2022-12-13T02:35:43.533Z,-2.90
2022-12-13T02:38:23.006Z,-2.80
2022-12-13T02:41:00.787Z,-2.90
2022-12-13T02:43:34.296Z,-2.80
2022-12-13T02:46:04.193Z,-2.90
2022-12-13T02:48:38.846Z,-2.90
2022-12-13T02:51:10.327Z,-3.00
2022-12-13T02:53:41.132Z,-3.00
2022-12-13T02:56:09.517Z,-3.00
2022-12-13T02:58:45.739Z,-3.00
2022-12-13T03:01:40.392Z,-3.10
2022-12-13T03:04:19.262Z,-3.10
2022-12-13T03:06:58.075Z,-3.10
2022-12-13T03:09:38.664Z,-3.10
2022-12-13T03:12:34.676Z,-3.10
2022-12-13T03:15:14.330Z,-3.10
2022-12-13T03:17:49.235Z,-3.10
2022-12-13T03:20:23.857Z,-3.10
2022-12-13T03:22:52.184Z,-3.10
2022-12-13T03:25:31.446Z,-3.10
2022-12-13T03:28:02.459Z,-3.10
2022-12-13T03:30:32.076Z,-3.10
2022-12-13T03:33:00.441Z,-3.10
2022-12-13T03:35:34.444Z,-3.10
2022-12-13T03:38:13.081Z,-3.10
2022-12-13T03:40:54.329Z,-3.10
2022-12-13T03:43:23.704Z,-3.10
2022-12-13T03:45:52.948Z,-3.00
2022-12-13T03:48:21.694Z,-1.70
2022-12-13T03:50:55.265Z,-3.00
2022-12-13T03:53:33.884Z,-3.10
2022-12-13T03:56:04.201Z,-3.10
2022-12-13T03:58:36.157Z,-3.20
2022-12-13T04:01:07.376Z,-3.20
2022-12-13T04:03:35.773Z,-3.20
2022-12-13T04:06:06.453Z,-3.20
2022-12-13T04:08:35.335Z,-3.30
2022-12-13T04:11:25.252Z,-3.30
2022-12-13T04:13:52.637Z,-3.30
2022-12-13T04:16:21.651Z,-3.40
2022-12-13T04:18:50.600Z,-3.30
2022-12-13T04:21:20.229Z,-3.30
2022-12-13T04:23:48.818Z,-3.40
2022-12-13T04:26:17.392Z,-3.40
2022-12-13T04:28:49.497Z,-3.40
2022-12-13T04:31:23.033Z,-3.40
2022-12-13T04:33:51.855Z,-3.40
2022-12-13T04:36:30.907Z,-3.40
2022-12-13T04:39:01.818Z,-3.30
2022-12-13T04:41:34.040Z,-3.40
2022-12-13T04:44:03.549Z,-3.40
2022-12-13T04:46:32.201Z,-3.40
2022-12-13T04:49:00.883Z,-3.40
2022-12-13T04:51:30.571Z,-3.40
2022-12-13T04:54:04.261Z,-3.40
2022-12-13T04:56:48.003Z,-3.40
2022-12-13T04:59:16.795Z,-3.40
2022-12-13T05:01:45.449Z,-3.40
2022-12-13T05:04:13.601Z,-3.40
2022-12-13T05:06:43.651Z,-3.40
2022-12-13T05:09:11.844Z,-3.40
2022-12-13T05:11:45.388Z,-3.40
2022-12-13T05:14:14.193Z,-3.40
2022-12-13T05:16:52.239Z,-3.50
2022-12-13T05:19:20.955Z,-3.50
2022-12-13T05:21:51.687Z,-3.60
2022-12-13T05:24:19.825Z,-3.60
2022-12-13T05:26:48.442Z,-3.60
2022-12-13T05:29:17.139Z,-3.60
2022-12-13T05:31:45.415Z,-3.60
2022-12-13T05:34:14.082Z,-3.60
2022-12-13T05:36:42.210Z,-3.60
2022-12-13T05:39:29.473Z,-3.60
2022-12-13T05:42:01.571Z,-3.60
2022-12-13T05:44:31.915Z,-3.60
2022-12-13T05:47:01.943Z,-3.60
2022-12-13T05:49:31.567Z,-3.60
2022-12-13T05:52:00.327Z,-3.60
2022-12-13T05:54:29.895Z,-3.60
2022-12-13T05:56:58.620Z,-3.60
2022-12-13T05:59:26.729Z,-3.60
2022-12-13T06:01:55.378Z,-3.60
2022-12-13T06:04:23.763Z,-3.60
2022-12-13T06:06:52.336Z,-3.70
2022-12-13T06:09:21.252Z,-3.70
2022-12-13T06:11:51.261Z,-3.70
2022-12-13T06:14:21.361Z,-3.70
2022-12-13T06:16:51.866Z,-3.70
2022-12-13T06:19:20.883Z,-3.80
2022-12-13T06:21:49.752Z,-3.80
2022-12-13T06:24:20.105Z,-3.80
2022-12-13T06:26:50.366Z,-3.80
2022-12-13T06:29:23.257Z,-3.80
2022-12-13T06:32:01.007Z,-3.80
2022-12-13T06:34:32.949Z,-3.80
2022-12-13T06:37:01.610Z,-3.80
2022-12-13T06:39:32.882Z,-3.80
2022-12-13T06:42:06.120Z,-3.80
2022-12-13T06:44:35.092Z,-3.80
2022-12-13T06:47:10.280Z,-3.80
2022-12-13T06:49:42.619Z,-3.80
2022-12-13T06:52:12.464Z,-3.80
2022-12-13T06:55:05.421Z,-3.80
2022-12-13T06:57:35.901Z,-3.80
2022-12-13T07:00:05.496Z,-3.90
2022-12-13T07:02:33.838Z,-3.90
2022-12-13T07:05:02.085Z,-3.90
2022-12-13T07:07:31.026Z,-3.90
2022-12-13T07:09:59.680Z,-3.90
2022-12-13T07:12:28.310Z,-3.90
2022-12-13T07:14:58.072Z,-3.90
2022-12-13T07:17:33.141Z,-3.90
2022-12-13T07:20:08.552Z,-3.90
2022-12-13T07:22:44.841Z,-3.90
2022-12-13T07:25:27.574Z,-3.90
2022-12-13T07:28:01.124Z,-3.80
2022-12-13T07:30:33.101Z,-3.90
2022-12-13T07:33:03.076Z,-3.80
2022-12-13T07:35:37.525Z,-3.80
2022-12-13T07:38:06.205Z,-3.90
2022-12-13T07:40:35.142Z,-3.90
2022-12-13T07:43:03.393Z,-3.90
2022-12-13T07:45:33.415Z,-3.90
2022-12-13T07:48:06.392Z,-4.00
2022-12-13T07:50:36.793Z,-4.00
2022-12-13T07:53:08.176Z,-4.00
2022-12-13T07:55:37.760Z,-4.00
2022-12-13T07:58:07.954Z,-4.10
2022-12-13T08:00:38.563Z,-4.10
2022-12-13T08:03:07.524Z,-4.10
2022-12-13T08:05:38.554Z,-4.10
2022-12-13T08:08:09.817Z,-4.10
2022-12-13T08:10:38.637Z,-4.10
2022-12-13T08:13:07.340Z,-4.00
2022-12-13T08:15:35.475Z,-4.00
2022-12-13T08:18:05.676Z,-4.00
2022-12-13T08:20:33.866Z,-4.00
2022-12-13T08:23:02.936Z,-4.00
2022-12-13T08:25:32.368Z,-3.90
2022-12-13T08:28:01.678Z,-3.90
2022-12-13T08:30:32.851Z,-3.90
2022-12-13T08:33:05.118Z,-3.80
2022-12-13T08:35:35.723Z,-3.80
2022-12-13T08:38:04.627Z,-3.80
2022-12-13T08:40:33.182Z,-3.80
2022-12-13T08:43:01.804Z,-3.70
2022-12-13T08:45:31.676Z,-3.70
2022-12-13T08:48:01.591Z,-3.80
2022-12-13T08:50:31.592Z,-3.70
2022-12-13T08:53:01.118Z,-3.70
2022-12-13T08:55:32.245Z,-3.70
2022-12-13T08:58:05.152Z,-3.70
2022-12-13T09:00:35.832Z,-3.70
2022-12-13T09:03:05.226Z,-3.70
2022-12-13T09:05:35.197Z,-3.60
2022-12-13T09:08:24.652Z,-3.60
2022-12-13T09:11:01.344Z,-3.60
2022-12-13T09:13:43.456Z,-3.60
2022-12-13T09:16:22.822Z,-3.60
2022-12-13T09:18:55.415Z,-3.50
2022-12-13T09:21:31.593Z,-3.50
2022-12-13T09:24:02.541Z,-3.50
2022-12-13T09:26:38.272Z,-3.40
2022-12-13T09:29:11.230Z,-3.40
2022-12-13T09:31:41.243Z,-3.30
2022-12-13T09:34:10.182Z,-3.30
2022-12-13T09:36:39.172Z,-3.20
2022-12-13T09:39:09.699Z,-3.20
2022-12-13T09:41:41.418Z,-1.50
2022-12-13T09:44:32.169Z,-3.10
2022-12-13T09:47:13.155Z,-3.00
2022-12-13T09:49:53.095Z,-3.00
2022-12-13T09:52:25.206Z,-2.90
2022-12-13T09:54:56.821Z,-2.90
2022-12-13T09:57:30.676Z,-2.80
2022-12-13T10:00:02.340Z,-2.70
2022-12-13T10:02:33.608Z,-2.70
2022-12-13T10:05:22.167Z,-2.60
2022-12-13T10:07:54.548Z,-2.60
2022-12-13T10:10:24.922Z,-2.50
2022-12-13T10:12:59.962Z,-2.50
2022-12-13T10:15:30.339Z,-2.40
2022-12-13T10:17:59.692Z,-2.30
2022-12-13T10:20:29.971Z,-2.20
2022-12-13T10:25:54.701Z,-2.10
2022-12-13T10:28:34.270Z,-2.10
2022-12-13T10:31:03.174Z,-2.00
2022-12-13T10:33:33.357Z,-2.00
2022-12-13T10:36:13.030Z,-1.90
2022-12-13T10:38:43.585Z,-1.90
2022-12-13T10:41:43.604Z,-1.80
2022-12-13T10:44:20.951Z,-1.80
2022-12-13T10:46:52.827Z,-1.70
2022-12-13T10:49:24.186Z,-1.70
2022-12-13T10:51:54.962Z,-1.60
2022-12-13T10:54:29.119Z,-1.60
2022-12-13T10:57:13.774Z,-1.50
2022-12-13T10:59:42.566Z,-1.40
2022-12-13T11:02:32.968Z,-1.30
2022-12-13T11:05:23.324Z,-1.30
2022-12-13T11:07:52.483Z,-1.20
2022-12-13T11:10:27.509Z,-1.10
2022-12-13T11:13:01.907Z,-1.00
2022-12-13T11:15:31.702Z,-1.00
2022-12-13T11:18:02.641Z,-0.90
2022-12-13T11:20:35.094Z,-0.80
2022-12-13T11:23:07.381Z,-0.70
2022-12-13T11:25:41.653Z,-0.70
2022-12-13T11:28:27.011Z,-0.60
2022-12-13T11:31:05.699Z,-0.60
2022-12-13T11:33:48.070Z,0.20
2022-12-13T11:36:27.177Z,-0.40
2022-12-13T11:39:07.871Z,-0.40
2022-12-13T11:41:40.649Z,-0.30
2022-12-13T11:44:18.117Z,-0.30
2022-12-13T11:46:51.857Z,-0.20
2022-12-13T11:49:25.635Z,-0.10
2022-12-13T11:51:58.172Z,-0.10
2022-12-13T11:54:34.959Z,0.00
2022-12-13T11:57:10.802Z,0.00
2022-12-13T11:59:46.888Z,0.10
2022-12-13T12:02:21.962Z,0.10
2022-12-13T12:04:59.992Z,0.20
2022-12-13T12:07:36.204Z,0.30
2022-12-13T12:10:21.622Z,0.30
2022-12-13T12:12:57.235Z,0.40
2022-12-13T12:15:30.427Z,0.40
2022-12-13T12:17:59.616Z,0.50
2022-12-13T12:20:39.697Z,0.60
2022-12-13T12:23:19.552Z,0.60
2022-12-13T12:25:54.354Z,0.70
2022-12-13T12:28:29.530Z,0.70
2022-12-13T12:31:09.445Z,0.80
2022-12-13T12:33:46.993Z,0.80
2022-12-13T12:36:45.091Z,0.90
2022-12-13T12:39:32.117Z,0.90
2022-12-13T12:42:16.438Z,1.00
2022-12-13T12:44:59.116Z,1.00
2022-12-13T12:50:37.065Z,1.00
2022-12-13T12:53:40.866Z,1.50
2022-12-13T12:56:31.841Z,1.10
2022-12-13T12:59:07.854Z,1.10
2022-12-13T13:01:52.886Z,1.20
2022-12-13T13:04:25.921Z,1.30
2022-12-13T13:07:01.429Z,1.40
2022-12-13T13:09:31.770Z,1.60
2022-12-13T13:12:28.622Z,1.80
2022-12-13T13:14:52.928Z,2.00
2022-12-13T13:17:51.609Z,2.30
2022-12-13T13:20:24.870Z,2.60
2022-12-13T13:23:17.663Z,2.80
2022-12-13T13:26:24.255Z,3.10
2022-12-13T13:28:45.875Z,3.30
2022-12-13T13:31:14.658Z,3.60
2022-12-13T13:33:48.965Z,3.70
2022-12-13T13:36:52.505Z,3.90
2022-12-13T13:39:38.949Z,4.00
2022-12-13T13:42:18.467Z,4.20
2022-12-13T13:45:20.060Z,4.30
2022-12-13T13:48:25.642Z,4.40
2022-12-13T13:51:30.191Z,3.50
2022-12-13T13:54:37.282Z,4.50
2022-12-13T13:58:11.254Z,4.50
2022-12-13T14:01:11.538Z,4.30
2022-12-13T14:04:12.810Z,4.10
2022-12-13T14:07:09.180Z,3.90
2022-12-13T14:10:08.441Z,3.70
2022-12-13T14:13:31.388Z,3.50
2022-12-13T14:16:49.005Z,3.30
2022-12-13T14:20:02.463Z,3.10
2022-12-13T14:22:36.106Z,2.90
2022-12-13T14:25:46.389Z,2.70
2022-12-13T14:28:28.013Z,2.60
2022-12-13T14:31:01.441Z,2.40
2022-12-13T14:33:30.525Z,2.30
2022-12-13T14:36:01.057Z,2.20
2022-12-13T14:38:31.344Z,2.10
2022-12-13T14:41:03.555Z,2.00
2022-12-13T14:43:33.221Z,1.90
2022-12-13T14:46:04.092Z,1.80
2022-12-13T14:48:36.589Z,1.70
2022-12-13T14:51:05.573Z,1.70
2022-12-13T14:53:39.254Z,1.60
2022-12-13T14:56:27.570Z,1.50
2022-12-13T14:58:59.321Z,1.50
2022-12-13T15:01:30.763Z,1.40
2022-12-13T15:04:18.144Z,1.30
2022-12-13T15:06:48.181Z,1.20
2022-12-13T15:09:18.832Z,1.20
2022-12-13T15:11:48.559Z,1.10
2022-12-13T15:14:19.178Z,1.10
2022-12-13T15:16:51.386Z,1.00
2022-12-13T15:19:31.044Z,1.00
2022-12-13T15:22:02.551Z,0.90
2022-12-13T15:24:32.923Z,0.80
2022-12-13T15:27:05.758Z,0.80
2022-12-13T15:29:36.171Z,0.70
2022-12-13T15:32:06.312Z,0.70
2022-12-13T15:34:38.770Z,0.70
2022-12-13T15:37:28.307Z,0.60
2022-12-13T15:40:01.772Z,0.50
2022-12-13T15:42:35.194Z,0.50
2022-12-13T15:45:06.245Z,0.50
2022-12-13T15:47:35.128Z,0.40
2022-12-13T15:50:06.385Z,0.40
2022-12-13T15:52:36.758Z,0.40
2022-12-13T15:55:28.316Z,0.30
2022-12-13T15:57:59.398Z,0.30
2022-12-13T16:04:24.020Z,0.20
2022-12-13T16:06:56.130Z,0.20
2022-12-13T16:09:27.128Z,0.20
2022-12-13T16:11:58.095Z,0.10
2022-12-13T16:14:49.540Z,0.10
2022-12-13T16:17:24.583Z,0.10
2022-12-13T16:19:53.820Z,0.10
2022-12-13T16:22:24.007Z,0.10
2022-12-13T16:24:53.385Z,0.10
2022-12-13T16:27:22.155Z,0.00
2022-12-13T16:29:52.177Z,0.00
2022-12-13T16:32:21.047Z,0.00
2022-12-13T16:34:49.738Z,0.10
2022-12-13T16:37:26.019Z,0.00
2022-12-13T16:39:55.647Z,0.10
2022-12-13T16:42:26.324Z,0.10
2022-12-13T16:45:18.138Z,0.10
2022-12-13T16:47:49.186Z,0.10
2022-12-13T16:50:19.783Z,0.10
2022-12-13T16:52:48.347Z,0.10
2022-12-13T16:55:16.713Z,0.10
2022-12-13T16:57:45.410Z,-0.10
2022-12-13T17:00:16.115Z,0.10
2022-12-13T17:02:44.783Z,0.10
2022-12-13T17:05:13.276Z,0.10
2022-12-13T17:07:41.434Z,0.10
2022-12-13T17:10:11.458Z,0.10
2022-12-13T17:12:40.524Z,0.10
2022-12-13T17:15:10.113Z,0.00
2022-12-13T17:17:40.511Z,0.00
2022-12-13T17:20:11.436Z,0.10
2022-12-13T17:22:39.772Z,0.00
2022-12-13T17:25:09.385Z,0.00
2022-12-13T17:27:37.862Z,0.00
2022-12-13T17:30:08.276Z,0.00
2022-12-13T17:32:37.628Z,0.00
2022-12-13T17:35:11.978Z,0.00
2022-12-13T17:37:44.045Z,0.00
2022-12-13T17:40:12.411Z,-0.10
2022-12-13T17:42:40.637Z,-0.10
2022-12-13T17:45:09.394Z,-0.10
2022-12-13T17:47:39.691Z,-0.10
2022-12-13T17:50:10.577Z,-0.10
2022-12-13T17:52:39.775Z,-0.10
2022-12-13T17:55:13.546Z,-0.10
2022-12-13T17:57:46.653Z,-0.20
2022-12-13T18:00:16.666Z,-0.20
2022-12-13T18:02:55.630Z,-0.20
2022-12-13T18:05:26.798Z,-0.20
2022-12-13T18:07:54.920Z,-0.30
2022-12-13T18:10:27.931Z,-0.30
2022-12-13T18:12:58.090Z,-0.30
2022-12-13T18:15:26.720Z,-0.20
2022-12-13T18:18:13.439Z,-0.20
2022-12-13T18:20:44.701Z,-0.30
2022-12-13T18:23:12.913Z,-0.30
2022-12-13T18:25:42.211Z,-0.30
2022-12-13T18:28:10.984Z,-0.30
2022-12-13T18:31:23.560Z,-0.20
2022-12-13T18:33:53.153Z,-0.20
2022-12-13T18:36:25.765Z,-0.20
2022-12-13T18:38:54.087Z,-0.20
2022-12-13T18:41:23.826Z,-0.20
2022-12-13T18:43:59.399Z,-0.20
2022-12-13T18:46:29.566Z,-0.20
2022-12-13T18:48:58.632Z,-0.20
2022-12-13T18:51:29.257Z,-0.20
2022-12-13T18:53:58.267Z,-0.20
2022-12-13T18:56:27.266Z,-0.20
2022-12-13T18:58:55.928Z,-0.20
2022-12-13T19:01:26.990Z,-0.20
2022-12-13T19:03:55.632Z,-0.20
2022-12-13T19:06:26.036Z,-0.20
2022-12-13T19:08:57.332Z,-0.20
2022-12-13T19:11:27.489Z,-0.20
2022-12-13T19:13:56.033Z,-0.20
2022-12-13T19:16:25.512Z,-0.20
2022-12-13T19:18:53.686Z,-0.20
2022-12-13T19:21:23.560Z,-0.20
2022-12-13T19:23:57.434Z,-0.20
2022-12-13T19:26:29.461Z,-0.20
2022-12-13T19:28:58.812Z,-0.20
2022-12-13T19:31:31.518Z,-0.20
2022-12-13T19:34:02.530Z,-0.20
2022-12-13T19:36:31.292Z,-0.10
2022-12-13T19:39:00.009Z,-0.20
2022-12-13T19:41:32.188Z,-0.10
2022-12-13T19:44:02.820Z,-0.10
2022-12-13T19:46:31.086Z,-0.10
2022-12-13T19:48:59.236Z,-0.10
2022-12-13T19:51:27.443Z,-0.20
2022-12-13T19:53:55.534Z,-0.20
2022-12-13T19:56:24.540Z,-0.10
2022-12-13T19:58:54.936Z,-0.20
2022-12-13T20:01:23.100Z,-0.20
2022-12-13T20:03:51.892Z,-0.20
2022-12-13T20:06:22.847Z,-0.20
2022-12-13T20:08:52.235Z,-0.20
2022-12-13T20:11:22.114Z,-0.20
2022-12-13T20:13:54.386Z,-0.20
2022-12-13T20:16:26.618Z,-0.20
2022-12-13T20:18:57.208Z,-0.20
2022-12-13T20:21:26.399Z,-0.20
2022-12-13T20:23:54.691Z,-0.20
2022-12-13T20:26:26.114Z,-0.10
2022-12-13T20:28:54.459Z,-0.10
2022-12-13T20:31:27.020Z,-0.10
2022-12-13T20:33:57.040Z,-0.10
2022-12-13T20:36:27.503Z,-0.10
2022-12-13T20:38:57.587Z,-0.10
2022-12-13T20:41:27.697Z,-0.10
2022-12-13T20:43:58.832Z,-0.10
2022-12-13T20:46:29.924Z,-0.10
2022-12-13T20:49:00.130Z,-0.10
2022-12-13T20:51:30.835Z,-0.10
2022-12-13T20:53:58.923Z,-0.10
2022-12-13T20:56:29.166Z,-0.10
2022-12-13T20:58:57.514Z,-0.10
2022-12-13T21:01:30.865Z,-0.10
2022-12-13T21:04:01.137Z,-0.10
2022-12-13T21:06:30.903Z,-0.10
2022-12-13T21:09:02.830Z,-0.10
2022-12-13T21:11:33.024Z,-0.10
2022-12-13T21:14:08.179Z,-0.10
2022-12-13T21:16:42.066Z,-0.10
2022-12-13T21:19:11.319Z,-0.10
2022-12-13T21:21:40.024Z,-0.10
2022-12-13T21:24:09.254Z,-0.10
2022-12-13T21:26:37.391Z,-0.10
2022-12-13T21:29:08.230Z,0.00
2022-12-13T21:31:37.375Z,-0.10
2022-12-13T21:34:07.980Z,-0.10
2022-12-13T21:36:38.773Z,-0.10
2022-12-13T21:39:09.163Z,-0.10
2022-12-13T21:41:37.833Z,-0.10
2022-12-13T21:44:06.886Z,-0.10
2022-12-13T21:47:10.821Z,-0.10
2022-12-13T21:49:30.418Z,0.00
2022-12-13T21:51:59.054Z,-0.10
2022-12-13T21:54:27.140Z,0.00
2022-12-13T21:57:24.333Z,-0.10
2022-12-13T21:59:53.098Z,0.00
2022-12-13T22:02:21.854Z,-0.10
2022-12-13T22:04:52.984Z,-0.10
2022-12-13T22:07:23.157Z,-0.10
2022-12-13T22:09:51.491Z,-0.10
2022-12-13T22:12:22.565Z,-0.10
2022-12-13T22:14:51.677Z,-0.10
2022-12-13T22:17:28.337Z,-0.20
2022-12-13T22:20:03.119Z,-0.20
2022-12-13T22:22:31.391Z,-0.20
2022-12-13T22:24:59.984Z,-0.20
2022-12-13T22:27:28.206Z,-0.20
2022-12-13T22:29:58.386Z,-0.20
2022-12-13T22:32:28.438Z,-0.20
2022-12-13T22:34:57.038Z,-0.20
2022-12-13T22:37:26.808Z,-0.20
2022-12-13T22:39:54.987Z,-0.20
2022-12-13T22:42:23.947Z,-0.20
2022-12-13T22:44:52.093Z,-0.20
2022-12-13T22:47:20.804Z,-0.20
2022-12-13T22:49:49.252Z,-0.20
2022-12-13T22:52:17.850Z,-0.20
2022-12-13T22:54:47.460Z,-0.20
2022-12-13T22:57:15.717Z,-0.20
2022-12-13T22:59:43.906Z,-0.20
2022-12-13T23:02:12.645Z,-0.20
2022-12-13T23:04:40.901Z,-0.20
2022-12-13T23:07:09.129Z,-0.20
2022-12-13T23:09:37.322Z,-0.20
2022-12-13T23:12:24.948Z,-0.10
2022-12-13T23:14:53.051Z,-0.20
2022-12-13T23:17:21.132Z,-0.20
2022-12-13T23:19:53.545Z,-0.20
2022-12-13T23:22:22.990Z,-0.10
2022-12-13T23:24:51.905Z,-0.10
2022-12-13T23:27:23.160Z,-0.10
2022-12-13T23:29:51.523Z,-0.10
2022-12-13T23:32:20.166Z,-0.10
2022-12-13T23:34:48.249Z,-0.10
2022-12-13T23:37:17.100Z,0.00
2022-12-13T23:39:45.211Z,0.00
2022-12-13T23:42:13.959Z,0.00
2022-12-13T23:44:43.449Z,0.00
2022-12-13T23:47:12.063Z,0.00
2022-12-13T23:49:40.187Z,0.00
2022-12-13T23:52:08.862Z,0.00
2022-12-13T23:54:37.469Z,0.00
2022-12-13T23:57:06.039Z,0.10
2022-12-13T23:59:34.629Z,0.10
